EFSI/SJY METAR and TAF weather

Enter ICAO airport designator
Station Type Date Time Source
EFSI METAR 2018/10/19 16:20 UTC NOAA

EFSI 191620Z AUTO 21001KT CAVOK 05/03 Q1017


Station Type Date Time Source
EFSI Decoded METAR 2018/10/19 16:20 UTC NOAA

Seinajoki-Ilmajok, Finland (EFSI) 62-41-37N 022-49-55E
Oct 19, 2018 - 12:20 PM EDT / 2018.10.19 1620 UTC
Wind: from the SSW (210 degrees) at 1 MPH (1 KT):0
Visibility: greater than 7 mile(s):0
Temperature: 41 F (5 C)
Dew Point: 37 F (3 C)
Relative Humidity: 86%
Pressure (altimeter): 30.03 in. Hg (1017 hPa)
ob: EFSI 191620Z AUTO 21001KT CAVOK 05/03 Q1017
cycle: 16

Station Type Date Time Source
EFSI TAF 2012/03/06 09:42 UTC NOAA

TAF EFSI 060830Z 0609/0621 12003KT CAVOK


Example: see airport list